sensor_id;sensor_type;location;lat;lon;timestamp;temperature;humidity
21891;DHT22;11110;52.386;16.940;2023-03-23T00:01:03;25.90;38.70
21891;DHT22;11110;52.386;16.940;2023-03-23T00:03:31;25.90;38.80
21891;DHT22;11110;52.386;16.940;2023-03-23T00:05:59;25.90;38.70
21891;DHT22;11110;52.386;16.940;2023-03-23T00:08:32;25.90;38.70
21891;DHT22;11110;52.386;16.940;2023-03-23T00:11:04;25.90;38.70
21891;DHT22;11110;52.386;16.940;2023-03-23T00:13:31;25.90;38.70
21891;DHT22;11110;52.386;16.940;2023-03-23T00:15:59;25.90;38.70
21891;DHT22;11110;52.386;16.940;2023-03-23T00:18:28;25.90;38.60
21891;DHT22;11110;52.386;16.940;2023-03-23T00:20:56;25.90;38.60
21891;DHT22;11110;52.386;16.940;2023-03-23T00:23:25;25.90;38.60
21891;DHT22;11110;52.386;16.940;2023-03-23T00:25:56;25.90;38.70
21891;DHT22;11110;52.386;16.940;2023-03-23T00:28:24;25.90;38.80
21891;DHT22;11110;52.386;16.940;2023-03-23T00:30:57;25.90;38.80
21891;DHT22;11110;52.386;16.940;2023-03-23T00:33:26;25.80;38.70
21891;DHT22;11110;52.386;16.940;2023-03-23T00:35:54;25.80;38.70
21891;DHT22;11110;52.386;16.940;2023-03-23T00:38:23;25.80;38.70
21891;DHT22;11110;52.386;16.940;2023-03-23T00:40:55;25.80;38.70
21891;DHT22;11110;52.386;16.940;2023-03-23T00:43:24;25.80;38.80
21891;DHT22;11110;52.386;16.940;2023-03-23T00:45:56;25.80;38.80
21891;DHT22;11110;52.386;16.940;2023-03-23T00:48:28;25.80;38.80
21891;DHT22;11110;52.386;16.940;2023-03-23T00:50:59;25.80;38.80
21891;DHT22;11110;52.386;16.940;2023-03-23T00:53:27;25.70;38.80
21891;DHT22;11110;52.386;16.940;2023-03-23T00:55:56;25.70;38.80
21891;DHT22;11110;52.386;16.940;2023-03-23T00:58:23;25.70;38.80
21891;DHT22;11110;52.386;16.940;2023-03-23T01:00:52;25.70;39.00
21891;DHT22;11110;52.386;16.940;2023-03-23T01:03:19;25.60;38.90
21891;DHT22;11110;52.386;16.940;2023-03-23T01:05:47;25.60;38.90
21891;DHT22;11110;52.386;16.940;2023-03-23T01:08:18;25.50;39.00
21891;DHT22;11110;52.386;16.940;2023-03-23T01:10:47;25.40;39.00
21891;DHT22;11110;52.386;16.940;2023-03-23T01:13:17;25.50;39.10
21891;DHT22;11110;52.386;16.940;2023-03-23T01:15:46;25.50;39.10
21891;DHT22;11110;52.386;16.940;2023-03-23T01:18:13;25.50;39.20
21891;DHT22;11110;52.386;16.940;2023-03-23T01:20:41;25.50;39.20
21891;DHT22;11110;52.386;16.940;2023-03-23T01:23:08;25.50;39.20
21891;DHT22;11110;52.386;16.940;2023-03-23T01:25:36;25.40;39.10
21891;DHT22;11110;52.386;16.940;2023-03-23T01:28:04;25.50;39.20
21891;DHT22;11110;52.386;16.940;2023-03-23T01:30:33;25.50;39.20
21891;DHT22;11110;52.386;16.940;2023-03-23T01:33:01;25.40;39.20
21891;DHT22;11110;52.386;16.940;2023-03-23T01:35:28;25.30;39.10
21891;DHT22;11110;52.386;16.940;2023-03-23T01:37:56;25.40;39.30
21891;DHT22;11110;52.386;16.940;2023-03-23T01:40:26;25.30;39.50
21891;DHT22;11110;52.386;16.940;2023-03-23T01:42:55;25.30;39.40
21891;DHT22;11110;52.386;16.940;2023-03-23T01:45:26;25.20;39.50
21891;DHT22;11110;52.386;16.940;2023-03-23T01:48:09;25.20;39.60
21891;DHT22;11110;52.386;16.940;2023-03-23T01:50:43;25.30;39.60
21891;DHT22;11110;52.386;16.940;2023-03-23T01:53:13;25.30;39.60
21891;DHT22;11110;52.386;16.940;2023-03-23T01:55:43;25.20;39.50
21891;DHT22;11110;52.386;16.940;2023-03-23T01:58:17;25.20;39.60
21891;DHT22;11110;52.386;16.940;2023-03-23T02:00:46;25.20;39.60
21891;DHT22;11110;52.386;16.940;2023-03-23T02:03:15;25.30;39.70
21891;DHT22;11110;52.386;16.940;2023-03-23T02:05:44;25.30;39.70
21891;DHT22;11110;52.386;16.940;2023-03-23T02:08:27;25.20;39.70
21891;DHT22;11110;52.386;16.940;2023-03-23T02:10:56;25.20;39.80
21891;DHT22;11110;52.386;16.940;2023-03-23T02:13:23;25.00;39.70
21891;DHT22;11110;52.386;16.940;2023-03-23T02:15:59;25.00;39.90
21891;DHT22;11110;52.386;16.940;2023-03-23T02:22:05;24.90;40.00
21891;DHT22;11110;52.386;16.940;2023-03-23T02:24:56;24.90;40.00
21891;DHT22;11110;52.386;16.940;2023-03-23T02:27:43;25.00;40.10
21891;DHT22;11110;52.386;16.940;2023-03-23T02:30:25;25.00;40.10
21891;DHT22;11110;52.386;16.940;2023-03-23T02:36:02;24.90;40.20
21891;DHT22;11110;52.386;16.940;2023-03-23T02:38:35;24.80;40.30
21891;DHT22;11110;52.386;16.940;2023-03-23T02:41:03;24.80;40.40
21891;DHT22;11110;52.386;16.940;2023-03-23T02:43:34;24.80;40.30
21891;DHT22;11110;52.386;16.940;2023-03-23T02:46:05;24.80;40.30
21891;DHT22;11110;52.386;16.940;2023-03-23T02:48:36;24.70;40.30
21891;DHT22;11110;52.386;16.940;2023-03-23T02:51:07;24.70;40.40
21891;DHT22;11110;52.386;16.940;2023-03-23T02:53:39;24.70;40.40
21891;DHT22;11110;52.386;16.940;2023-03-23T02:56:08;24.70;40.40
21891;DHT22;11110;52.386;16.940;2023-03-23T02:58:38;24.80;40.40
21891;DHT22;11110;52.386;16.940;2023-03-23T03:04:01;24.80;40.40
21891;DHT22;11110;52.386;16.940;2023-03-23T03:06:35;24.70;40.40
21891;DHT22;11110;52.386;16.940;2023-03-23T03:09:11;24.80;40.40
21891;DHT22;11110;52.386;16.940;2023-03-23T03:11:45;24.80;40.30
21891;DHT22;11110;52.386;16.940;2023-03-23T03:14:19;24.80;40.30
21891;DHT22;11110;52.386;16.940;2023-03-23T03:16:53;24.80;40.30
21891;DHT22;11110;52.386;16.940;2023-03-23T03:19:26;24.80;40.20
21891;DHT22;11110;52.386;16.940;2023-03-23T03:21:57;24.80;40.20
21891;DHT22;11110;52.386;16.940;2023-03-23T03:24:38;24.80;40.20
21891;DHT22;11110;52.386;16.940;2023-03-23T03:27:12;24.80;40.20
21891;DHT22;11110;52.386;16.940;2023-03-23T03:29:53;24.70;40.20
21891;DHT22;11110;52.386;16.940;2023-03-23T03:32:23;24.80;40.90
21891;DHT22;11110;52.386;16.940;2023-03-23T03:34:53;24.70;40.20
21891;DHT22;11110;52.386;16.940;2023-03-23T03:37:22;24.80;40.20
21891;DHT22;11110;52.386;16.940;2023-03-23T03:39:51;24.70;40.20
21891;DHT22;11110;52.386;16.940;2023-03-23T03:42:19;24.80;40.20
21891;DHT22;11110;52.386;16.940;2023-03-23T03:44:47;24.80;40.10
21891;DHT22;11110;52.386;16.940;2023-03-23T03:47:14;24.80;40.10
21891;DHT22;11110;52.386;16.940;2023-03-23T03:49:42;24.80;40.10
21891;DHT22;11110;52.386;16.940;2023-03-23T03:52:09;24.80;40.10
21891;DHT22;11110;52.386;16.940;2023-03-23T03:54:43;24.80;40.00
21891;DHT22;11110;52.386;16.940;2023-03-23T03:57:11;24.90;40.00
21891;DHT22;11110;52.386;16.940;2023-03-23T03:59:57;24.90;40.00
21891;DHT22;11110;52.386;16.940;2023-03-23T04:02:45;24.90;39.90
21891;DHT22;11110;52.386;16.940;2023-03-23T04:05:23;24.90;39.90
21891;DHT22;11110;52.386;16.940;2023-03-23T04:07:51;24.90;39.80
21891;DHT22;11110;52.386;16.940;2023-03-23T04:10:21;24.90;39.70
21891;DHT22;11110;52.386;16.940;2023-03-23T04:12:53;24.90;39.70
21891;DHT22;11110;52.386;16.940;2023-03-23T04:15:40;24.90;39.70
21891;DHT22;11110;52.386;16.940;2023-03-23T04:18:08;24.90;39.60
21891;DHT22;11110;52.386;16.940;2023-03-23T04:20:36;24.90;39.60
21891;DHT22;11110;52.386;16.940;2023-03-23T04:23:04;25.00;39.50
21891;DHT22;11110;52.386;16.940;2023-03-23T04:25:35;25.00;39.40
21891;DHT22;11110;52.386;16.940;2023-03-23T04:28:04;24.90;39.40
21891;DHT22;11110;52.386;16.940;2023-03-23T04:30:39;25.00;39.40
21891;DHT22;11110;52.386;16.940;2023-03-23T04:33:12;24.90;39.30
21891;DHT22;11110;52.386;16.940;2023-03-23T04:35:42;24.90;39.40
21891;DHT22;11110;52.386;16.940;2023-03-23T04:38:17;25.00;39.40
21891;DHT22;11110;52.386;16.940;2023-03-23T04:40:52;25.00;39.30
21891;DHT22;11110;52.386;16.940;2023-03-23T04:43:46;25.00;39.20
21891;DHT22;11110;52.386;16.940;2023-03-23T04:46:27;25.00;39.20
21891;DHT22;11110;52.386;16.940;2023-03-23T04:49:01;25.00;39.20
21891;DHT22;11110;52.386;16.940;2023-03-23T04:51:34;25.00;39.10
21891;DHT22;11110;52.386;16.940;2023-03-23T04:54:14;25.00;39.10
21891;DHT22;11110;52.386;16.940;2023-03-23T04:56:48;24.90;39.00
21891;DHT22;11110;52.386;16.940;2023-03-23T04:59:16;25.00;38.90
21891;DHT22;11110;52.386;16.940;2023-03-23T05:01:59;25.00;38.80
21891;DHT22;11110;52.386;16.940;2023-03-23T05:04:27;25.10;38.80
21891;DHT22;11110;52.386;16.940;2023-03-23T05:07:07;25.10;38.80
21891;DHT22;11110;52.386;16.940;2023-03-23T05:09:41;25.10;38.80
21891;DHT22;11110;52.386;16.940;2023-03-23T05:12:10;25.10;38.70
21891;DHT22;11110;52.386;16.940;2023-03-23T05:15:00;25.20;38.70
21891;DHT22;11110;52.386;16.940;2023-03-23T05:17:31;25.20;38.70
21891;DHT22;11110;52.386;16.940;2023-03-23T05:20:02;25.20;38.80
21891;DHT22;11110;52.386;16.940;2023-03-23T05:22:36;25.20;38.60
21891;DHT22;11110;52.386;16.940;2023-03-23T05:25:07;25.20;38.60
21891;DHT22;11110;52.386;16.940;2023-03-23T05:27:41;25.30;38.50
21891;DHT22;11110;52.386;16.940;2023-03-23T05:30:37;25.30;38.60
21891;DHT22;11110;52.386;16.940;2023-03-23T05:33:07;25.30;38.50
21891;DHT22;11110;52.386;16.940;2023-03-23T05:36:00;25.30;38.40
21891;DHT22;11110;52.386;16.940;2023-03-23T05:38:39;25.30;38.40
21891;DHT22;11110;52.386;16.940;2023-03-23T05:41:10;25.30;38.30
21891;DHT22;11110;52.386;16.940;2023-03-23T05:43:43;25.30;38.20
21891;DHT22;11110;52.386;16.940;2023-03-23T05:46:33;25.40;38.20
21891;DHT22;11110;52.386;16.940;2023-03-23T05:49:02;25.30;38.20
21891;DHT22;11110;52.386;16.940;2023-03-23T05:51:36;25.40;38.20
21891;DHT22;11110;52.386;16.940;2023-03-23T05:54:04;25.40;38.10
21891;DHT22;11110;52.386;16.940;2023-03-23T05:56:33;25.50;38.10
21891;DHT22;11110;52.386;16.940;2023-03-23T05:59:35;25.60;38.00
21891;DHT22;11110;52.386;16.940;2023-03-23T06:02:06;25.50;37.90
21891;DHT22;11110;52.386;16.940;2023-03-23T06:04:34;25.60;38.00
21891;DHT22;11110;52.386;16.940;2023-03-23T06:07:26;25.60;37.80
21891;DHT22;11110;52.386;16.940;2023-03-23T06:10:00;25.60;37.90
21891;DHT22;11110;52.386;16.940;2023-03-23T06:12:36;25.60;37.80
21891;DHT22;11110;52.386;16.940;2023-03-23T06:15:27;25.70;37.60
21891;DHT22;11110;52.386;16.940;2023-03-23T06:17:58;25.70;37.60
21891;DHT22;11110;52.386;16.940;2023-03-23T06:20:33;25.70;37.50
21891;DHT22;11110;52.386;16.940;2023-03-23T06:23:13;25.80;37.40
21891;DHT22;11110;52.386;16.940;2023-03-23T06:25:42;25.80;37.40
21891;DHT22;11110;52.386;16.940;2023-03-23T06:28:11;25.80;37.40
21891;DHT22;11110;52.386;16.940;2023-03-23T06:30:43;25.80;37.30
21891;DHT22;11110;52.386;16.940;2023-03-23T06:33:11;25.80;37.30
21891;DHT22;11110;52.386;16.940;2023-03-23T06:36:11;25.80;37.20
21891;DHT22;11110;52.386;16.940;2023-03-23T06:38:59;25.90;37.20
21891;DHT22;11110;52.386;16.940;2023-03-23T06:41:43;25.90;37.10
21891;DHT22;11110;52.386;16.940;2023-03-23T06:44:11;25.90;36.90
21891;DHT22;11110;52.386;16.940;2023-03-23T06:46:42;26.00;37.00
21891;DHT22;11110;52.386;16.940;2023-03-23T06:49:19;26.00;36.80
21891;DHT22;11110;52.386;16.940;2023-03-23T06:52:04;26.00;36.80
21891;DHT22;11110;52.386;16.940;2023-03-23T06:54:33;26.10;36.70
21891;DHT22;11110;52.386;16.940;2023-03-23T06:57:02;26.20;36.60
21891;DHT22;11110;52.386;16.940;2023-03-23T06:59:30;26.10;36.50
21891;DHT22;11110;52.386;16.940;2023-03-23T07:02:00;26.20;36.30
21891;DHT22;11110;52.386;16.940;2023-03-23T07:04:27;26.30;36.50
21891;DHT22;11110;52.386;16.940;2023-03-23T07:07:05;26.20;36.10
21891;DHT22;11110;52.386;16.940;2023-03-23T07:09:40;26.30;36.10
21891;DHT22;11110;52.386;16.940;2023-03-23T07:12:08;26.30;36.60
21891;DHT22;11110;52.386;16.940;2023-03-23T07:14:42;26.40;35.90
21891;DHT22;11110;52.386;16.940;2023-03-23T07:17:11;26.50;35.70
21891;DHT22;11110;52.386;16.940;2023-03-23T07:19:48;26.60;35.60
21891;DHT22;11110;52.386;16.940;2023-03-23T07:22:17;26.70;35.50
21891;DHT22;11110;52.386;16.940;2023-03-23T07:24:51;26.80;35.40
21891;DHT22;11110;52.386;16.940;2023-03-23T07:27:27;26.70;35.50
21891;DHT22;11110;52.386;16.940;2023-03-23T07:29:57;26.60;35.30
21891;DHT22;11110;52.386;16.940;2023-03-23T07:32:28;26.80;35.20
21891;DHT22;11110;52.386;16.940;2023-03-23T07:34:56;26.80;35.20
21891;DHT22;11110;52.386;16.940;2023-03-23T07:37:41;26.90;35.20
21891;DHT22;11110;52.386;16.940;2023-03-23T07:40:10;26.90;35.20
21891;DHT22;11110;52.386;16.940;2023-03-23T07:42:43;27.00;35.20
21891;DHT22;11110;52.386;16.940;2023-03-23T07:45:11;27.20;35.00
21891;DHT22;11110;52.386;16.940;2023-03-23T07:47:41;27.00;34.90
21891;DHT22;11110;52.386;16.940;2023-03-23T07:50:09;27.20;35.00
21891;DHT22;11110;52.386;16.940;2023-03-23T07:52:41;27.10;35.00
21891;DHT22;11110;52.386;16.940;2023-03-23T07:55:10;27.10;35.00
21891;DHT22;11110;52.386;16.940;2023-03-23T07:58:01;27.10;34.90
21891;DHT22;11110;52.386;16.940;2023-03-23T08:00:29;27.10;34.90
21891;DHT22;11110;52.386;16.940;2023-03-23T08:02:59;27.30;34.80
21891;DHT22;11110;52.386;16.940;2023-03-23T08:05:48;27.40;34.90
21891;DHT22;11110;52.386;16.940;2023-03-23T08:08:55;27.30;34.90
21891;DHT22;11110;52.386;16.940;2023-03-23T08:11:42;27.50;35.00
21891;DHT22;11110;52.386;16.940;2023-03-23T08:14:33;27.40;35.10
21891;DHT22;11110;52.386;16.940;2023-03-23T08:17:25;27.50;35.20
21891;DHT22;11110;52.386;16.940;2023-03-23T08:20:15;27.30;35.30
21891;DHT22;11110;52.386;16.940;2023-03-23T08:22:57;27.40;35.40
21891;DHT22;11110;52.386;16.940;2023-03-23T08:25:38;27.40;35.50
21891;DHT22;11110;52.386;16.940;2023-03-23T08:28:21;27.50;35.50
21891;DHT22;11110;52.386;16.940;2023-03-23T08:31:25;27.50;35.40
21891;DHT22;11110;52.386;16.940;2023-03-23T08:34:25;27.60;35.20
21891;DHT22;11110;52.386;16.940;2023-03-23T08:37:13;27.70;35.30
21891;DHT22;11110;52.386;16.940;2023-03-23T08:39:51;27.60;35.20
21891;DHT22;11110;52.386;16.940;2023-03-23T08:42:25;27.80;34.90
21891;DHT22;11110;52.386;16.940;2023-03-23T08:44:52;27.80;34.90
21891;DHT22;11110;52.386;16.940;2023-03-23T08:47:47;27.90;34.70
21891;DHT22;11110;52.386;16.940;2023-03-23T08:50:40;27.80;34.70
21891;DHT22;11110;52.386;16.940;2023-03-23T08:53:27;27.80;34.90
21891;DHT22;11110;52.386;16.940;2023-03-23T08:56:16;27.90;34.80
21891;DHT22;11110;52.386;16.940;2023-03-23T08:58:46;27.80;34.80
21891;DHT22;11110;52.386;16.940;2023-03-23T09:01:34;27.70;34.60
21891;DHT22;11110;52.386;16.940;2023-03-23T09:04:15;27.80;34.60
21891;DHT22;11110;52.386;16.940;2023-03-23T09:07:06;27.90;34.50
21891;DHT22;11110;52.386;16.940;2023-03-23T09:09:35;27.90;34.60
21891;DHT22;11110;52.386;16.940;2023-03-23T09:12:03;27.80;34.60
21891;DHT22;11110;52.386;16.940;2023-03-23T09:14:31;27.90;34.60
21891;DHT22;11110;52.386;16.940;2023-03-23T09:16:58;27.90;34.40
21891;DHT22;11110;52.386;16.940;2023-03-23T09:19:27;28.00;34.30
21891;DHT22;11110;52.386;16.940;2023-03-23T09:21:55;27.90;34.40
21891;DHT22;11110;52.386;16.940;2023-03-23T09:24:22;28.20;34.50
21891;DHT22;11110;52.386;16.940;2023-03-23T09:26:52;28.10;35.10
21891;DHT22;11110;52.386;16.940;2023-03-23T09:29:20;27.90;34.50
21891;DHT22;11110;52.386;16.940;2023-03-23T09:31:48;28.00;34.70
21891;DHT22;11110;52.386;16.940;2023-03-23T09:34:16;28.00;34.70
21891;DHT22;11110;52.386;16.940;2023-03-23T09:36:44;28.00;34.50
21891;DHT22;11110;52.386;16.940;2023-03-23T09:39:13;28.10;34.60
21891;DHT22;11110;52.386;16.940;2023-03-23T09:42:02;28.10;34.40
21891;DHT22;11110;52.386;16.940;2023-03-23T09:44:42;28.00;34.60
21891;DHT22;11110;52.386;16.940;2023-03-23T09:47:23;28.30;34.80
21891;DHT22;11110;52.386;16.940;2023-03-23T09:49:57;28.20;34.70
21891;DHT22;11110;52.386;16.940;2023-03-23T09:52:34;28.30;34.80
21891;DHT22;11110;52.386;16.940;2023-03-23T09:55:07;28.40;34.30
21891;DHT22;11110;52.386;16.940;2023-03-23T09:57:49;28.20;34.50
21891;DHT22;11110;52.386;16.940;2023-03-23T10:00:22;28.40;34.20
21891;DHT22;11110;52.386;16.940;2023-03-23T10:02:58;28.10;34.20
21891;DHT22;11110;52.386;16.940;2023-03-23T10:05:33;28.00;34.40
21891;DHT22;11110;52.386;16.940;2023-03-23T10:08:05;28.00;34.40
21891;DHT22;11110;52.386;16.940;2023-03-23T10:10:45;28.00;34.60
21891;DHT22;11110;52.386;16.940;2023-03-23T10:13:22;28.00;34.80
21891;DHT22;11110;52.386;16.940;2023-03-23T10:15:51;28.00;34.80
21891;DHT22;11110;52.386;16.940;2023-03-23T10:18:25;28.00;34.90
21891;DHT22;11110;52.386;16.940;2023-03-23T10:20:57;27.90;35.30
21891;DHT22;11110;52.386;16.940;2023-03-23T10:23:41;27.70;35.60
21891;DHT22;11110;52.386;16.940;2023-03-23T10:26:18;27.80;35.80
21891;DHT22;11110;52.386;16.940;2023-03-23T10:28:52;27.70;35.90
21891;DHT22;11110;52.386;16.940;2023-03-23T10:31:24;27.50;36.20
21891;DHT22;11110;52.386;16.940;2023-03-23T10:33:54;27.50;36.60
21891;DHT22;11110;52.386;16.940;2023-03-23T10:36:26;27.40;37.00
21891;DHT22;11110;52.386;16.940;2023-03-23T10:39:13;27.40;37.50
21891;DHT22;11110;52.386;16.940;2023-03-23T10:41:41;27.30;37.90
21891;DHT22;11110;52.386;16.940;2023-03-23T10:44:14;27.30;38.40
21891;DHT22;11110;52.386;16.940;2023-03-23T10:46:45;27.20;38.50
21891;DHT22;11110;52.386;16.940;2023-03-23T10:49:19;27.30;38.70
21891;DHT22;11110;52.386;16.940;2023-03-23T10:52:03;27.40;39.00
21891;DHT22;11110;52.386;16.940;2023-03-23T10:54:36;27.30;39.10
21891;DHT22;11110;52.386;16.940;2023-03-23T10:57:22;27.10;39.00
21891;DHT22;11110;52.386;16.940;2023-03-23T10:59:57;27.20;39.30
21891;DHT22;11110;52.386;16.940;2023-03-23T11:02:25;27.40;39.50
21891;DHT22;11110;52.386;16.940;2023-03-23T11:04:59;27.30;38.80
21891;DHT22;11110;52.386;16.940;2023-03-23T11:07:29;27.30;39.10
21891;DHT22;11110;52.386;16.940;2023-03-23T11:10:07;27.30;39.30
21891;DHT22;11110;52.386;16.940;2023-03-23T11:12:36;27.40;38.60
21891;DHT22;11110;52.386;16.940;2023-03-23T11:15:25;27.20;38.80
21891;DHT22;11110;52.386;16.940;2023-03-23T11:18:02;27.40;38.80
21891;DHT22;11110;52.386;16.940;2023-03-23T11:20:36;27.40;38.70
21891;DHT22;11110;52.386;16.940;2023-03-23T11:23:21;27.50;38.90
21891;DHT22;11110;52.386;16.940;2023-03-23T11:25:55;27.50;38.80
21891;DHT22;11110;52.386;16.940;2023-03-23T11:28:28;27.50;38.80
21891;DHT22;11110;52.386;16.940;2023-03-23T11:31:00;27.60;38.30
21891;DHT22;11110;52.386;16.940;2023-03-23T11:33:36;27.50;38.30
21891;DHT22;11110;52.386;16.940;2023-03-23T11:36:07;27.60;38.30
21891;DHT22;11110;52.386;16.940;2023-03-23T11:38:35;27.50;38.40
21891;DHT22;11110;52.386;16.940;2023-03-23T11:41:09;27.40;38.20
21891;DHT22;11110;52.386;16.940;2023-03-23T11:43:40;27.40;38.20
21891;DHT22;11110;52.386;16.940;2023-03-23T11:46:19;27.50;38.10
21891;DHT22;11110;52.386;16.940;2023-03-23T11:48:55;27.60;38.00
21891;DHT22;11110;52.386;16.940;2023-03-23T11:51:30;27.70;37.90
21891;DHT22;11110;52.386;16.940;2023-03-23T11:54:16;27.70;37.80
21891;DHT22;11110;52.386;16.940;2023-03-23T11:56:45;27.70;37.80
21891;DHT22;11110;52.386;16.940;2023-03-23T11:59:16;27.60;37.90
21891;DHT22;11110;52.386;16.940;2023-03-23T12:01:51;27.80;38.00
21891;DHT22;11110;52.386;16.940;2023-03-23T12:04:44;27.80;38.10
21891;DHT22;11110;52.386;16.940;2023-03-23T12:07:35;27.80;38.00
21891;DHT22;11110;52.386;16.940;2023-03-23T12:10:15;28.00;38.20
21891;DHT22;11110;52.386;16.940;2023-03-23T12:12:50;27.80;38.00
21891;DHT22;11110;52.386;16.940;2023-03-23T12:15:24;27.80;38.20
21891;DHT22;11110;52.386;16.940;2023-03-23T12:18:01;27.90;38.40
21891;DHT22;11110;52.386;16.940;2023-03-23T12:20:37;27.90;38.40
21891;DHT22;11110;52.386;16.940;2023-03-23T12:23:22;28.00;38.50
21891;DHT22;11110;52.386;16.940;2023-03-23T12:29:05;28.00;38.40
21891;DHT22;11110;52.386;16.940;2023-03-23T12:31:42;28.10;38.50
21891;DHT22;11110;52.386;16.940;2023-03-23T12:34:20;27.90;38.40
21891;DHT22;11110;52.386;16.940;2023-03-23T12:37:01;28.00;38.30
21891;DHT22;11110;52.386;16.940;2023-03-23T12:39:54;28.00;38.30
21891;DHT22;11110;52.386;16.940;2023-03-23T12:42:32;27.80;38.30
21891;DHT22;11110;52.386;16.940;2023-03-23T12:45:11;27.90;38.40
21891;DHT22;11110;52.386;16.940;2023-03-23T12:47:46;27.80;38.20
21891;DHT22;11110;52.386;16.940;2023-03-23T12:50:23;27.70;38.00
21891;DHT22;11110;52.386;16.940;2023-03-23T12:52:56;27.70;38.10
21891;DHT22;11110;52.386;16.940;2023-03-23T12:55:30;27.70;38.20
21891;DHT22;11110;52.386;16.940;2023-03-23T12:58:04;27.60;38.30
21891;DHT22;11110;52.386;16.940;2023-03-23T13:00:50;27.80;38.30
21891;DHT22;11110;52.386;16.940;2023-03-23T13:03:24;27.80;38.50
21891;DHT22;11110;52.386;16.940;2023-03-23T13:05:59;27.90;38.30
21891;DHT22;11110;52.386;16.940;2023-03-23T13:08:33;27.90;38.50
21891;DHT22;11110;52.386;16.940;2023-03-23T13:11:04;27.90;38.00
21891;DHT22;11110;52.386;16.940;2023-03-23T13:13:46;28.00;38.20
21891;DHT22;11110;52.386;16.940;2023-03-23T13:16:24;28.00;38.80
21891;DHT22;11110;52.386;16.940;2023-03-23T13:19:03;28.00;38.20
21891;DHT22;11110;52.386;16.940;2023-03-23T13:21:36;27.90;38.10
21891;DHT22;11110;52.386;16.940;2023-03-23T13:24:09;27.90;38.10
21891;DHT22;11110;52.386;16.940;2023-03-23T13:26:40;28.00;38.10
21891;DHT22;11110;52.386;16.940;2023-03-23T13:29:13;28.00;38.00
21891;DHT22;11110;52.386;16.940;2023-03-23T13:31:41;28.10;38.00
21891;DHT22;11110;52.386;16.940;2023-03-23T13:34:15;28.20;37.80
21891;DHT22;11110;52.386;16.940;2023-03-23T13:36:53;28.20;37.90
21891;DHT22;11110;52.386;16.940;2023-03-23T13:39:23;28.10;38.00
21891;DHT22;11110;52.386;16.940;2023-03-23T13:42:17;28.00;38.00
21891;DHT22;11110;52.386;16.940;2023-03-23T13:44:57;28.20;38.10
21891;DHT22;11110;52.386;16.940;2023-03-23T13:47:37;28.20;38.00
21891;DHT22;11110;52.386;16.940;2023-03-23T13:50:12;28.20;38.10
21891;DHT22;11110;52.386;16.940;2023-03-23T13:52:51;28.20;38.10
21891;DHT22;11110;52.386;16.940;2023-03-23T13:55:29;28.20;38.10
21891;DHT22;11110;52.386;16.940;2023-03-23T13:57:58;28.20;38.10
21891;DHT22;11110;52.386;16.940;2023-03-23T14:00:46;28.30;37.90
21891;DHT22;11110;52.386;16.940;2023-03-23T14:03:18;28.30;37.70
21891;DHT22;11110;52.386;16.940;2023-03-23T14:05:50;28.30;37.80
21891;DHT22;11110;52.386;16.940;2023-03-23T14:08:36;28.30;37.80
21891;DHT22;11110;52.386;16.940;2023-03-23T14:11:12;28.30;37.90
21891;DHT22;11110;52.386;16.940;2023-03-23T14:13:44;28.40;37.90
21891;DHT22;11110;52.386;16.940;2023-03-23T14:16:19;28.30;38.00
21891;DHT22;11110;52.386;16.940;2023-03-23T14:18:53;28.50;37.90
21891;DHT22;11110;52.386;16.940;2023-03-23T14:21:31;28.30;37.90
21891;DHT22;11110;52.386;16.940;2023-03-23T14:24:09;28.20;38.00
21891;DHT22;11110;52.386;16.940;2023-03-23T14:26:39;28.10;38.20
21891;DHT22;11110;52.386;16.940;2023-03-23T14:29:10;28.10;38.40
21891;DHT22;11110;52.386;16.940;2023-03-23T14:31:41;28.10;38.30
21891;DHT22;11110;52.386;16.940;2023-03-23T14:34:13;28.00;38.40
21891;DHT22;11110;52.386;16.940;2023-03-23T14:36:42;28.10;38.40
21891;DHT22;11110;52.386;16.940;2023-03-23T14:39:19;28.30;38.40
21891;DHT22;11110;52.386;16.940;2023-03-23T14:41:48;28.20;38.40
21891;DHT22;11110;52.386;16.940;2023-03-23T14:44:18;28.10;38.50
21891;DHT22;11110;52.386;16.940;2023-03-23T14:46:49;28.10;38.60
21891;DHT22;11110;52.386;16.940;2023-03-23T14:49:22;28.00;38.50
21891;DHT22;11110;52.386;16.940;2023-03-23T14:51:54;28.10;38.70
21891;DHT22;11110;52.386;16.940;2023-03-23T14:54:26;28.20;38.60
21891;DHT22;11110;52.386;16.940;2023-03-23T14:56:54;28.20;38.70
21891;DHT22;11110;52.386;16.940;2023-03-23T14:59:25;28.40;38.70
21891;DHT22;11110;52.386;16.940;2023-03-23T15:01:53;28.30;38.60
21891;DHT22;11110;52.386;16.940;2023-03-23T15:04:22;28.20;38.50
21891;DHT22;11110;52.386;16.940;2023-03-23T15:06:55;28.30;38.50
21891;DHT22;11110;52.386;16.940;2023-03-23T15:09:30;28.10;38.40
21891;DHT22;11110;52.386;16.940;2023-03-23T15:12:01;28.30;39.20
21891;DHT22;11110;52.386;16.940;2023-03-23T15:14:31;28.40;38.40
21891;DHT22;11110;52.386;16.940;2023-03-23T15:17:00;28.30;38.40
21891;DHT22;11110;52.386;16.940;2023-03-23T15:19:32;28.40;38.30
21891;DHT22;11110;52.386;16.940;2023-03-23T15:22:06;28.40;38.30
21891;DHT22;11110;52.386;16.940;2023-03-23T15:24:38;28.30;38.20
21891;DHT22;11110;52.386;16.940;2023-03-23T15:27:13;28.30;38.30
21891;DHT22;11110;52.386;16.940;2023-03-23T15:29:51;28.40;38.20
21891;DHT22;11110;52.386;16.940;2023-03-23T15:32:25;28.30;38.20
21891;DHT22;11110;52.386;16.940;2023-03-23T15:34:52;28.30;38.20
21891;DHT22;11110;52.386;16.940;2023-03-23T15:37:25;28.30;38.00
21891;DHT22;11110;52.386;16.940;2023-03-23T15:39:55;28.40;37.80
21891;DHT22;11110;52.386;16.940;2023-03-23T15:42:26;28.40;37.70
21891;DHT22;11110;52.386;16.940;2023-03-23T15:47:44;28.60;37.70
21891;DHT22;11110;52.386;16.940;2023-03-23T15:50:14;28.60;37.60
21891;DHT22;11110;52.386;16.940;2023-03-23T15:52:43;28.60;37.50
21891;DHT22;11110;52.386;16.940;2023-03-23T15:55:25;28.70;37.20
21891;DHT22;11110;52.386;16.940;2023-03-23T15:57:54;28.80;37.10
21891;DHT22;11110;52.386;16.940;2023-03-23T16:00:25;28.70;37.10
21891;DHT22;11110;52.386;16.940;2023-03-23T16:02:56;28.60;37.20
21891;DHT22;11110;52.386;16.940;2023-03-23T16:05:26;28.80;37.20
21891;DHT22;11110;52.386;16.940;2023-03-23T16:07:54;28.70;37.20
21891;DHT22;11110;52.386;16.940;2023-03-23T16:10:25;28.80;37.00
21891;DHT22;11110;52.386;16.940;2023-03-23T16:12:54;28.70;37.10
21891;DHT22;11110;52.386;16.940;2023-03-23T16:15:23;28.70;37.10